Time;durP1;ratioP1;P1;durP2;ratioP2;P2;SDS_P1;SDS_P2;PMS_P1;PMS_P2;Temp;Humidity;BMP_temperature;BMP_pressure;BME280_temperature;BME280_humidity;BME280_pressure;Samples;Min_cycle;Max_cycle;Signal;HPM_P1;HPM_P2
2023/07/19 00:02:01;;;;;;;2.85;1.80;;;;;;;;;;5084754;28;20033;-87
2023/07/19 00:04:28;;;;;;;4.93;2.38;;;;;;;;;;5086412;28;20223;-88
2023/07/19 00:06:57;;;;;;;4.82;2.45;;;;;;;;;;5088015;28;20048;-88
2023/07/19 00:09:27;;;;;;;5.03;2.15;;;;;;;;;;5086723;28;20060;-87
2023/07/19 00:11:54;;;;;;;5.53;2.42;;;;;;;;;;5086985;28;20116;-88
2023/07/19 00:14:21;;;;;;;5.05;2.70;;;;;;;;;;5084798;28;20048;-87
2023/07/19 00:16:48;;;;;;;3.88;2.40;;;;;;;;;;5083514;28;20072;-88
2023/07/19 00:19:15;;;;;;;4.15;2.28;;;;;;;;;;5081693;28;20100;-88
2023/07/19 00:21:46;;;;;;;3.70;1.95;;;;;;;;;;5084647;28;20106;-88
2023/07/19 00:24:13;;;;;;;4.72;1.88;;;;;;;;;;5084652;28;20258;-88
2023/07/19 00:26:40;;;;;;;4.15;1.67;;;;;;;;;;5084779;28;20052;-88
2023/07/19 00:29:07;;;;;;;3.60;1.73;;;;;;;;;;5084596;28;20158;-88
2023/07/19 00:31:34;;;;;;;5.93;1.67;;;;;;;;;;5092982;28;20123;-88
2023/07/19 00:34:01;;;;;;;2.28;1.90;;;;;;;;;;5089655;28;20062;-88
2023/07/19 00:36:32;;;;;;;6.18;2.05;;;;;;;;;;5084481;28;20060;-88
2023/07/19 00:39:03;;;;;;;4.43;2.10;;;;;;;;;;5084511;28;20049;-87
2023/07/19 00:41:30;;;;;;;8.52;2.78;;;;;;;;;;5084467;28;20068;-88
2023/07/19 00:43:59;;;;;;;6.90;2.20;;;;;;;;;;5083600;28;20044;-87
2023/07/19 00:46:27;;;;;;;4.57;2.00;;;;;;;;;;5084052;28;20060;-88
2023/07/19 00:48:55;;;;;;;4.65;2.22;;;;;;;;;;5083819;28;20048;-88
2023/07/19 00:51:22;;;;;;;4.72;2.40;;;;;;;;;;5083918;28;20135;-88
2023/07/19 00:53:49;;;;;;;4.05;2.67;;;;;;;;;;5084068;28;20063;-88
2023/07/19 00:56:18;;;;;;;6.38;2.72;;;;;;;;;;5083565;28;20486;-88
2023/07/19 00:58:45;;;;;;;4.53;2.05;;;;;;;;;;5085116;28;20048;-88
2023/07/19 01:01:12;;;;;;;7.18;2.17;;;;;;;;;;5082723;28;20041;-88
2023/07/19 01:03:39;;;;;;;7.70;2.17;;;;;;;;;;5083670;28;20113;-87
2023/07/19 01:06:09;;;;;;;6.63;2.80;;;;;;;;;;5083329;28;20049;-88
2023/07/19 01:08:36;;;;;;;6.15;2.72;;;;;;;;;;5084668;28;20130;-88
2023/07/19 01:11:11;;;;;;;5.35;2.58;;;;;;;;;;5084681;28;20048;-88
2023/07/19 01:13:38;;;;;;;4.63;2.17;;;;;;;;;;5084804;28;20255;-88
2023/07/19 01:16:09;;;;;;;5.18;2.42;;;;;;;;;;5086874;28;20075;-88
2023/07/19 01:18:36;;;;;;;5.70;2.75;;;;;;;;;;5083868;28;20072;-88
2023/07/19 01:21:03;;;;;;;7.97;2.45;;;;;;;;;;5083146;28;20044;-88
2023/07/19 01:23:50;;;;;;;3.90;2.22;;;;;;;;;;5083897;28;20107;-87
2023/07/19 01:26:17;;;;;;;6.72;3.00;;;;;;;;;;5084102;28;20143;-88
2023/07/19 01:28:45;;;;;;;4.88;2.42;;;;;;;;;;5086176;28;20048;-88
2023/07/19 01:31:17;;;;;;;8.05;2.50;;;;;;;;;;5083626;28;20049;-88
2023/07/19 01:33:44;;;;;;;5.47;3.03;;;;;;;;;;5082802;28;20048;-88
2023/07/19 01:36:11;;;;;;;2.97;2.28;;;;;;;;;;5083335;28;20357;-88
2023/07/19 01:38:41;;;;;;;4.00;2.72;;;;;;;;;;5083880;28;20040;-87
2023/07/19 01:41:08;;;;;;;6.78;2.80;;;;;;;;;;5086931;28;20037;-87
2023/07/19 01:43:38;;;;;;;3.65;2.30;;;;;;;;;;5083441;28;20040;-87
2023/07/19 01:46:05;;;;;;;6.13;2.40;;;;;;;;;;5087868;28;20066;-87
2023/07/19 01:48:33;;;;;;;7.43;2.05;;;;;;;;;;5082352;28;20150;-87
2023/07/19 01:51:00;;;;;;;3.42;1.95;;;;;;;;;;5082112;28;20053;-87
2023/07/19 01:53:26;;;;;;;9.60;2.60;;;;;;;;;;5082679;28;20347;-87
2023/07/19 01:55:55;;;;;;;5.25;2.38;;;;;;;;;;5083404;28;20055;-87
2023/07/19 01:58:22;;;;;;;5.32;2.58;;;;;;;;;;5082304;28;20048;-88
2023/07/19 02:00:49;;;;;;;6.38;2.63;;;;;;;;;;5082812;28;20122;-88
2023/07/19 02:03:18;;;;;;;4.63;2.22;;;;;;;;;;5082220;28;20060;-88
2023/07/19 02:05:54;;;;;;;4.88;2.33;;;;;;;;;;5082600;28;20074;-88
2023/07/19 02:08:22;;;;;;;4.57;2.50;;;;;;;;;;5083178;28;20112;-88
2023/07/19 02:10:49;;;;;;;6.10;2.45;;;;;;;;;;5083246;28;20044;-88
2023/07/19 02:13:21;;;;;;;5.00;2.25;;;;;;;;;;5084036;28;20052;-87
2023/07/19 02:15:48;;;;;;;8.90;2.83;;;;;;;;;;5087423;28;20056;-88
2023/07/19 02:18:16;;;;;;;7.82;2.75;;;;;;;;;;5086924;28;20088;-88
2023/07/19 02:20:48;;;;;;;5.00;2.28;;;;;;;;;;5087585;28;20052;-88
2023/07/19 02:23:18;;;;;;;5.22;3.00;;;;;;;;;;5088203;28;20060;-88
2023/07/19 02:25:51;;;;;;;7.85;3.30;;;;;;;;;;5087342;28;20052;-88
2023/07/19 02:28:18;;;;;;;6.55;4.20;;;;;;;;;;5082792;28;20052;-88
2023/07/19 02:30:45;;;;;;;10.60;4.30;;;;;;;;;;5082534;28;20052;-88
2023/07/19 02:33:14;;;;;;;8.20;4.50;;;;;;;;;;5082782;28;20045;-88
2023/07/19 02:35:41;;;;;;;6.88;4.32;;;;;;;;;;5084514;28;20094;-88
2023/07/19 02:38:11;;;;;;;6.38;3.47;;;;;;;;;;5084706;28;20052;-88
2023/07/19 02:40:39;;;;;;;10.40;4.95;;;;;;;;;;5083654;28;20050;-88
2023/07/19 02:43:07;;;;;;;9.15;5.28;;;;;;;;;;5080941;28;20129;-88
2023/07/19 02:45:39;;;;;;;9.35;4.90;;;;;;;;;;5081781;28;20114;-88
2023/07/19 02:48:06;;;;;;;10.57;5.30;;;;;;;;;;5082480;28;20044;-88
2023/07/19 02:50:33;;;;;;;8.55;5.57;;;;;;;;;;5084855;28;20060;-88
2023/07/19 02:53:09;;;;;;;7.90;5.90;;;;;;;;;;5083691;28;20119;-88
2023/07/19 02:55:35;;;;;;;;;;;;;;;;;;5083380;28;20060;-88
2023/07/19 02:58:02;;;;;;;8.80;5.90;;;;;;;;;;5089697;28;19920;-88
2023/07/19 03:00:29;;;;;;;11.75;6.90;;;;;;;;;;5086767;28;20055;-88
2023/07/19 03:02:56;;;;;;;8.77;6.03;;;;;;;;;;5083220;28;20063;-87
2023/07/19 03:05:23;;;;;;;12.15;7.05;;;;;;;;;;5085310;28;20104;-87
2023/07/19 03:07:50;;;;;;;13.00;6.35;;;;;;;;;;5086107;28;20055;-87
2023/07/19 03:10:17;;;;;;;11.93;6.57;;;;;;;;;;5083560;28;20049;-88
2023/07/19 03:12:44;;;;;;;12.32;6.32;;;;;;;;;;5081575;28;20074;-88
2023/07/19 03:15:11;;;;;;;11.20;6.63;;;;;;;;;;5079424;28;20049;-88
2023/07/19 03:17:39;;;;;;;14.43;7.10;;;;;;;;;;5080274;28;20064;-88
2023/07/19 03:20:06;;;;;;;13.85;6.75;;;;;;;;;;5079147;28;20049;-88
2023/07/19 03:22:34;;;;;;;7.78;5.88;;;;;;;;;;5080061;28;20043;-88
2023/07/19 03:25:08;;;;;;;13.30;6.60;;;;;;;;;;5080255;28;20053;-88
2023/07/19 03:27:35;;;;;;;8.43;6.18;;;;;;;;;;5081053;28;20059;-88
2023/07/19 03:30:02;;;;;;;10.13;6.35;;;;;;;;;;5082513;28;20048;-88
2023/07/19 03:32:35;;;;;;;12.82;7.40;;;;;;;;;;5094517;28;20103;-88
2023/07/19 03:35:16;;;;;;;17.70;7.55;;;;;;;;;;5096848;28;20060;-89
2023/07/19 03:38:00;;;;;;;10.40;6.07;;;;;;;;;;5096838;28;20162;-87
2023/07/19 03:40:45;;;;;;;10.30;6.03;;;;;;;;;;5094886;28;20037;-88
2023/07/19 03:43:26;;;;;;;13.45;6.53;;;;;;;;;;5096609;28;20052;-88
2023/07/19 03:46:10;;;;;;;10.40;6.80;;;;;;;;;;5095004;28;20105;-88
2023/07/19 03:48:51;;;;;;;12.43;6.50;;;;;;;;;;5097076;28;20096;-87
2023/07/19 03:51:37;;;;;;;13.85;7.75;;;;;;;;;;5096449;28;20040;-88
2023/07/19 03:54:27;;;;;;;12.05;6.78;;;;;;;;;;5094489;28;20037;-88
2023/07/19 03:57:11;;;;;;;12.32;6.78;;;;;;;;;;5095156;28;20044;-88
2023/07/19 03:59:59;;;;;;;13.48;7.45;;;;;;;;;;5095896;28;20036;-88
2023/07/19 04:03:03;;;;;;;14.20;6.72;;;;;;;;;;5094463;28;20035;-86
2023/07/19 04:05:45;;;;;;;11.45;6.55;;;;;;;;;;5094779;28;20021;-87
2023/07/19 04:08:28;;;;;;;11.43;6.57;;;;;;;;;;5094422;28;20119;-87
2023/07/19 04:11:16;;;;;;;25.70;7.30;;;;;;;;;;5095402;28;20041;-88
2023/07/19 04:13:58;;;;;;;8.52;7.03;;;;;;;;;;5092542;28;20063;-88
2023/07/19 04:16:44;;;;;;;12.98;7.00;;;;;;;;;;5093993;28;20053;-88
2023/07/19 04:19:38;;;;;;;9.70;6.35;;;;;;;;;;5092865;28;20052;-87
2023/07/19 04:27:29;;;;;;;11.13;6.18;;;;;;;;;;5093206;28;20057;-87
2023/07/19 04:30:12;;;;;;;8.68;5.85;;;;;;;;;;5093881;28;20044;-88
2023/07/19 04:32:56;;;;;;;9.43;5.93;;;;;;;;;;5096555;28;20236;-89
2023/07/19 04:35:48;;;;;;;13.07;5.55;;;;;;;;;;5094981;26;20056;-88
2023/07/19 04:38:31;;;;;;;11.07;5.60;;;;;;;;;;5099382;28;20039;-87
2023/07/19 04:46:21;;;;;;;8.10;5.70;;;;;;;;;;5097889;28;20045;-88
2023/07/19 04:49:09;;;;;;;9.10;5.90;;;;;;;;;;5098533;28;20088;-88
2023/07/19 04:52:21;;;;;;;13.13;5.53;;;;;;;;;;5099500;28;20154;-88
2023/07/19 04:58:46;;;;;;;13.25;5.50;;;;;;;;;;5099638;28;20024;-87
2023/07/19 05:01:37;;;;;;;7.15;5.45;;;;;;;;;;5369017;22;20048;-86
2023/07/19 05:09:40;;;;;;;12.63;5.40;;;;;;;;;;5477059;22;20091;-88
2023/07/19 05:12:23;;;;;;;6.57;4.90;;;;;;;;;;5098915;28;20214;-87
2023/07/19 05:21:33;;;;;;;11.50;6.10;;;;;;;;;;5098340;22;20093;-87
2023/07/19 05:32:20;;;;;;;10.05;5.53;;;;;;;;;;5145899;22;20431;-88
2023/07/19 06:54:46;;;;;;;12.40;5.03;;;;;;;;;;5073740;28;20106;-88
2023/07/19 07:00:07;;;;;;;8.40;4.67;;;;;;;;;;5438628;22;20100;-88
2023/07/19 07:08:23;;;;;;;9.63;4.50;;;;;;;;;;5551276;22;20072;-89
2023/07/19 07:11:13;;;;;;;8.05;4.07;;;;;;;;;;5095771;28;20048;-87
2023/07/19 08:42:12;;;;;;;7.85;3.30;;;;;;;;;;5097519;28;20033;-88
2023/07/19 08:47:39;;;;;;;5.85;3.03;;;;;;;;;;5194426;22;20069;-88
2023/07/19 08:55:47;;;;;;;8.00;3.95;;;;;;;;;;5360996;22;20040;-89
2023/07/19 12:35:10;;;;;;;3.97;0.80;;;;;;;;;;766608;22;20367;-85
2023/07/19 12:40:45;;;;;;;5.70;0.88;;;;;;;;;;5470177;22;20127;-88
2023/07/19 12:43:27;;;;;;;2.90;1.10;;;;;;;;;;5095028;28;20063;-87
2023/07/19 12:49:16;;;;;;;3.30;0.88;;;;;;;;;;5473018;22;20045;-88
2023/07/19 13:49:23;;;;;;;8.75;3.15;;;;;;;;;;5092036;28;20100;-87
2023/07/19 13:52:12;;;;;;;7.00;3.17;;;;;;;;;;5091104;28;20116;-89
2023/07/19 13:54:57;;;;;;;9.02;3.05;;;;;;;;;;5075389;28;20250;-87
2023/07/19 13:57:38;;;;;;;6.50;3.60;;;;;;;;;;5073092;28;20043;-86
2023/07/19 14:00:30;;;;;;;5.03;3.05;;;;;;;;;;5076678;28;20056;-87
2023/07/19 14:03:15;;;;;;;6.68;3.30;;;;;;;;;;5089336;28;20116;-87
2023/07/19 14:06:21;;;;;;;6.63;2.90;;;;;;;;;;5167552;22;20041;-86
2023/07/19 14:09:26;;;;;;;6.13;2.67;;;;;;;;;;5090176;28;20054;-87
2023/07/19 14:12:39;;;;;;;6.07;2.38;;;;;;;;;;5090974;28;20108;-87
2023/07/19 14:15:22;;;;;;;9.73;2.42;;;;;;;;;;5089350;28;20028;-86
2023/07/19 14:18:09;;;;;;;10.15;2.92;;;;;;;;;;5089931;28;20040;-87
2023/07/19 14:20:50;;;;;;;;;;;;;;;;;;5089814;28;20080;-87
2023/07/19 14:23:40;;;;;;;7.45;2.30;;;;;;;;;;5091652;28;19952;-86
2023/07/19 14:26:25;;;;;;;5.93;2.20;;;;;;;;;;5094100;28;20038;-86
2023/07/19 14:29:08;;;;;;;6.13;3.15;;;;;;;;;;5089823;28;20020;-87
2023/07/19 14:31:54;;;;;;;5.47;2.85;;;;;;;;;;5088042;28;20104;-86
2023/07/19 14:34:39;;;;;;;6.75;3.25;;;;;;;;;;5090181;28;20051;-85
2023/07/19 14:45:06;;;;;;;4.07;2.70;;;;;;;;;;5084712;28;20049;-87
2023/07/19 14:47:48;;;;;;;7.85;2.90;;;;;;;;;;5085927;28;20044;-86
2023/07/19 14:50:33;;;;;;;4.75;2.78;;;;;;;;;;5085901;28;20033;-87
2023/07/19 14:53:17;;;;;;;5.78;2.88;;;;;;;;;;5084733;28;20089;-85
2023/07/19 14:55:58;;;;;;;8.38;2.90;;;;;;;;;;5083095;28;20173;-85
2023/07/19 14:58:39;;;;;;;7.25;2.85;;;;;;;;;;5078599;28;20221;-86
2023/07/19 15:01:22;;;;;;;9.10;2.42;;;;;;;;;;5082974;28;20132;-86
2023/07/19 15:04:04;;;;;;;6.57;2.85;;;;;;;;;;5082459;28;20028;-85
2023/07/19 15:06:50;;;;;;;3.80;1.85;;;;;;;;;;5081218;28;20040;-86
2023/07/19 15:09:40;;;;;;;2.38;1.67;;;;;;;;;;5081928;28;20123;-86
2023/07/19 15:12:20;;;;;;;4.57;1.73;;;;;;;;;;5079658;28;20043;-85
2023/07/19 15:15:01;;;;;;;3.70;2.30;;;;;;;;;;5078393;28;20110;-86
2023/07/19 15:17:41;;;;;;;8.10;2.20;;;;;;;;;;5077127;28;20090;-85
2023/07/19 15:20:24;;;;;;;3.20;1.75;;;;;;;;;;5078337;28;20049;-85
2023/07/19 15:23:05;;;;;;;5.32;1.52;;;;;;;;;;5081090;28;20040;-86
2023/07/19 15:25:47;;;;;;;5.35;1.77;;;;;;;;;;5084474;28;20067;-85
2023/07/19 15:28:32;;;;;;;6.63;1.88;;;;;;;;;;5077984;28;20040;-85
2023/07/19 15:31:15;;;;;;;5.25;1.85;;;;;;;;;;5069517;28;20132;-85
2023/07/19 15:34:10;;;;;;;4.32;1.65;;;;;;;;;;5083955;28;20055;-86
2023/07/19 15:37:12;;;;;;;4.47;1.83;;;;;;;;;;5079121;28;20427;-86
2023/07/19 15:39:52;;;;;;;2.97;1.20;;;;;;;;;;5080790;28;20033;-87
2023/07/19 15:42:40;;;;;;;5.32;1.80;;;;;;;;;;5076179;28;20060;-85
2023/07/19 15:45:23;;;;;;;5.05;2.45;;;;;;;;;;5075848;28;20040;-86
2023/07/19 15:48:10;;;;;;;6.15;1.80;;;;;;;;;;5080697;28;20051;-87
2023/07/19 15:50:55;;;;;;;4.97;1.48;;;;;;;;;;5085899;28;20086;-86
2023/07/19 15:53:38;;;;;;;6.10;2.72;;;;;;;;;;5081852;28;20056;-85
2023/07/19 15:56:21;;;;;;;13.50;2.83;;;;;;;;;;5080891;28;20033;-85
2023/07/19 15:59:04;;;;;;;9.00;3.75;;;;;;;;;;5080709;28;20139;-86
2023/07/19 16:01:45;;;;;;;8.13;2.88;;;;;;;;;;5079217;28;20483;-86
2023/07/19 16:04:54;;;;;;;4.15;2.42;;;;;;;;;;5082830;28;20071;-86
2023/07/19 16:07:37;;;;;;;1.67;0.90;;;;;;;;;;5080664;28;20060;-85
2023/07/19 16:10:19;;;;;;;2.83;0.88;;;;;;;;;;5082707;28;20032;-86
2023/07/19 16:13:31;;;;;;;1.73;0.75;;;;;;;;;;5082347;28;20108;-88
2023/07/19 16:16:11;;;;;;;1.75;0.45;;;;;;;;;;5081738;28;20051;-87
2023/07/19 16:18:52;;;;;;;1.95;0.60;;;;;;;;;;5082397;28;20035;-86
2023/07/19 16:21:38;;;;;;;0.68;0.50;;;;;;;;;;5083602;28;20028;-87
2023/07/19 16:24:21;;;;;;;1.30;0.63;;;;;;;;;;5082215;28;20070;-85
2023/07/19 16:27:14;;;;;;;4.57;0.65;;;;;;;;;;5078128;28;20096;-88
2023/07/19 16:29:54;;;;;;;3.22;0.50;;;;;;;;;;5080718;28;20204;-87
2023/07/19 16:32:36;;;;;;;3.22;0.60;;;;;;;;;;5083525;28;20055;-86
2023/07/19 16:35:21;;;;;;;3.00;0.73;;;;;;;;;;5086428;28;20048;-85
2023/07/19 16:38:20;;;;;;;13.13;1.52;;;;;;;;;;5085659;28;20062;-85
2023/07/19 16:41:01;;;;;;;4.30;1.67;;;;;;;;;;5084010;28;20036;-87
2023/07/19 16:44:13;;;;;;;5.00;0.95;;;;;;;;;;5084864;28;20105;-87
2023/07/19 16:46:54;;;;;;;1.50;0.68;;;;;;;;;;5084466;28;20032;-86
2023/07/19 16:49:35;;;;;;;3.67;0.80;;;;;;;;;;5084021;28;20060;-86
2023/07/19 16:52:18;;;;;;;3.65;0.90;;;;;;;;;;5080435;28;20037;-85
2023/07/19 16:55:04;;;;;;;3.88;0.93;;;;;;;;;;5087999;28;20040;-86
2023/07/19 16:57:45;;;;;;;0.93;0.60;;;;;;;;;;5084550;28;20048;-86
2023/07/19 17:00:44;;;;;;;1.75;0.50;;;;;;;;;;5083955;28;20051;-87
2023/07/19 17:03:25;;;;;;;2.35;0.60;;;;;;;;;;5088182;28;20332;-86
2023/07/19 17:06:07;;;;;;;2.20;0.63;;;;;;;;;;5090836;28;20135;-88
2023/07/19 17:09:24;;;;;;;2.92;0.40;;;;;;;;;;5092757;28;20071;-88
2023/07/19 17:12:08;;;;;;;1.35;0.60;;;;;;;;;;4988842;28;20031;-86
2023/07/19 17:14:53;;;;;;;0.50;0.30;;;;;;;;;;5088771;28;20036;-87
2023/07/19 17:17:34;;;;;;;1.15;0.50;;;;;;;;;;5086500;28;20029;-87
2023/07/19 17:23:36;;;;;;;0.77;0.45;;;;;;;;;;5089315;28;20108;-88
2023/07/19 17:26:18;;;;;;;4.35;0.40;;;;;;;;;;5087738;28;20157;-86
2023/07/19 17:29:21;;;;;;;0.68;0.38;;;;;;;;;;5088720;28;20072;-86
2023/07/19 17:32:05;;;;;;;0.82;0.50;;;;;;;;;;5087198;28;20406;-86
2023/07/19 17:34:45;;;;;;;1.63;0.50;;;;;;;;;;5086704;28;20204;-86
2023/07/19 17:37:29;;;;;;;0.60;0.50;;;;;;;;;;5087272;28;20059;-87
2023/07/19 17:40:15;;;;;;;4.38;0.68;;;;;;;;;;5088160;28;20028;-86
2023/07/19 17:42:57;;;;;;;1.27;0.50;;;;;;;;;;5092726;28;20039;-86
2023/07/19 17:45:41;;;;;;;2.63;0.50;;;;;;;;;;5090657;28;20060;-86
2023/07/19 17:48:23;;;;;;;1.30;0.50;;;;;;;;;;5093541;28;20044;-87
2023/07/19 17:51:07;;;;;;;1.20;0.55;;;;;;;;;;5093572;28;20024;-88
2023/07/19 17:54:18;;;;;;;0.60;0.30;;;;;;;;;;5091057;28;20268;-86
2023/07/19 17:57:06;;;;;;;0.40;0.30;;;;;;;;;;5092907;28;20024;-85
2023/07/19 17:59:50;;;;;;;0.47;0.40;;;;;;;;;;5093352;28;20055;-88
2023/07/19 18:02:30;;;;;;;0.60;0.40;;;;;;;;;;5091969;28;20067;-86
2023/07/19 18:05:30;;;;;;;1.35;0.40;;;;;;;;;;5093189;28;20037;-86
2023/07/19 18:08:12;;;;;;;0.60;0.38;;;;;;;;;;5089488;28;20036;-87
2023/07/19 18:10:55;;;;;;;0.45;0.45;;;;;;;;;;5089071;28;20044;-87
2023/07/19 18:13:41;;;;;;;1.23;0.45;;;;;;;;;;5092381;28;20028;-86
2023/07/19 18:16:31;;;;;;;2.05;0.50;;;;;;;;;;5089170;28;20040;-86
2023/07/19 18:19:40;;;;;;;0.32;0.25;;;;;;;;;;5089653;28;20043;-87
2023/07/19 18:22:23;;;;;;;1.55;0.30;;;;;;;;;;5087548;28;20167;-86
2023/07/19 18:25:08;;;;;;;0.60;0.52;;;;;;;;;;5089721;28;20224;-88
2023/07/19 18:28:13;;;;;;;0.30;0.30;;;;;;;;;;5093476;28;20024;-87
2023/07/19 18:31:17;;;;;;;1.63;0.65;;;;;;;;;;5143282;22;20053;-87
2023/07/19 18:34:20;;;;;;;3.35;0.25;;;;;;;;;;5071005;28;20104;-87
2023/07/19 18:37:03;;;;;;;1.35;0.32;;;;;;;;;;5056489;28;20041;-86
2023/07/19 18:39:44;;;;;;;0.80;0.30;;;;;;;;;;5050388;28;20068;-86
2023/07/19 18:42:29;;;;;;;0.95;0.50;;;;;;;;;;5056436;28;20033;-87
2023/07/19 18:45:21;;;;;;;0.73;0.43;;;;;;;;;;5057346;28;20220;-87
2023/07/19 18:48:18;;;;;;;0.55;0.38;;;;;;;;;;5074224;28;20067;-87
2023/07/19 18:51:00;;;;;;;1.20;0.60;;;;;;;;;;5059250;28;20021;-87
2023/07/19 18:53:47;;;;;;;1.40;0.40;;;;;;;;;;5040302;28;20160;-88
2023/07/19 19:02:00;;;;;;;2.65;0.70;;;;;;;;;;5071018;28;20037;-86
2023/07/19 19:04:41;;;;;;;2.38;0.43;;;;;;;;;;5055975;28;20108;-87
2023/07/19 19:07:25;;;;;;;0.98;0.50;;;;;;;;;;5072751;28;20017;-87
2023/07/19 19:10:26;;;;;;;2.83;0.50;;;;;;;;;;5073411;28;20024;-88
2023/07/19 19:13:10;;;;;;;1.40;0.60;;;;;;;;;;5056533;28;20113;-87
2023/07/19 19:16:10;;;;;;;1.27;0.40;;;;;;;;;;5058203;28;20065;-86
2023/07/19 19:18:59;;;;;;;0.50;0.40;;;;;;;;;;5057180;28;20057;-87
2023/07/19 19:22:00;;;;;;;0.60;0.50;;;;;;;;;;5072591;28;20048;-86
2023/07/19 19:25:26;;;;;;;0.85;0.55;;;;;;;;;;5406210;22;20052;-89
2023/07/19 19:28:14;;;;;;;1.13;0.40;;;;;;;;;;5093086;28;20032;-86
2023/07/19 19:31:03;;;;;;;2.85;0.50;;;;;;;;;;5077886;28;20044;-87
2023/07/19 19:33:45;;;;;;;1.23;0.82;;;;;;;;;;5077863;28;20052;-86
2023/07/19 19:36:36;;;;;;;1.50;0.50;;;;;;;;;;5077573;28;20032;-87
2023/07/19 19:39:21;;;;;;;0.82;0.70;;;;;;;;;;5077255;28;20041;-85
2023/07/19 19:42:21;;;;;;;2.10;0.50;;;;;;;;;;5078821;28;20024;-86
2023/07/19 19:45:02;;;;;;;1.77;0.70;;;;;;;;;;5078033;28;20036;-87
2023/07/19 19:47:46;;;;;;;0.77;0.77;;;;;;;;;;5077061;28;20058;-88
2023/07/19 19:50:35;;;;;;;0.63;0.57;;;;;;;;;;5077026;28;20076;-87
2023/07/19 19:53:25;;;;;;;3.70;0.63;;;;;;;;;;5076968;28;20096;-86
2023/07/19 19:56:32;;;;;;;0.50;0.43;;;;;;;;;;5077362;28;20040;-86
2023/07/19 19:59:34;;;;;;;3.20;0.75;;;;;;;;;;5078435;28;20080;-87
2023/07/19 20:02:26;;;;;;;0.65;0.40;;;;;;;;;;5076941;28;20032;-88
2023/07/19 20:05:25;;;;;;;0.90;0.50;;;;;;;;;;5094116;28;20038;-87
2023/07/19 20:08:19;;;;;;;1.52;0.40;;;;;;;;;;5081838;28;20040;-86
2023/07/19 20:11:11;;;;;;;0.60;0.50;;;;;;;;;;5097917;28;20021;-88
2023/07/19 20:14:00;;;;;;;0.50;0.50;;;;;;;;;;5096204;28;20060;-86
2023/07/19 20:17:05;;;;;;;3.40;0.80;;;;;;;;;;5098523;28;20056;-88
2023/07/19 20:23:04;;;;;;;1.05;0.60;;;;;;;;;;5096538;28;19927;-88
2023/07/19 20:25:46;;;;;;;2.20;0.50;;;;;;;;;;5095766;28;20145;-86
2023/07/19 20:28:28;;;;;;;2.78;0.60;;;;;;;;;;5097308;28;20032;-87
2023/07/19 20:31:14;;;;;;;0.77;0.50;;;;;;;;;;5093426;28;20116;-87
2023/07/19 20:34:16;;;;;;;0.50;0.50;;;;;;;;;;5092144;28;20032;-86
2023/07/19 20:36:57;;;;;;;3.13;0.80;;;;;;;;;;5092670;28;20074;-87
2023/07/19 20:39:38;;;;;;;0.40;0.40;;;;;;;;;;5093793;28;20079;-88
2023/07/19 20:42:19;;;;;;;4.93;1.23;;;;;;;;;;5094768;28;20095;-87
2023/07/19 20:45:05;;;;;;;2.35;0.40;;;;;;;;;;5096503;28;20025;-87
2023/07/19 20:47:49;;;;;;;3.80;1.10;;;;;;;;;;5096929;28;20036;-87
2023/07/19 20:50:35;;;;;;;1.42;0.70;;;;;;;;;;5094468;28;20044;-86
2023/07/19 20:53:20;;;;;;;2.35;0.68;;;;;;;;;;5092563;28;20059;-87
2023/07/19 20:56:01;;;;;;;1.30;0.90;;;;;;;;;;5092792;28;20100;-86
2023/07/19 20:58:47;;;;;;;0.52;0.40;;;;;;;;;;5095106;28;20068;-86
2023/07/19 21:01:28;;;;;;;1.25;0.60;;;;;;;;;;5089365;28;20052;-86
2023/07/19 21:03:55;;;;;;;1.15;0.63;;;;;;;;;;5079710;28;20084;-86
2023/07/19 21:06:24;;;;;;;1.55;0.60;;;;;;;;;;5078236;28;20196;-86
2023/07/19 21:08:54;;;;;;;6.82;1.48;;;;;;;;;;5079860;28;20064;-87
2023/07/19 21:11:21;;;;;;;1.02;0.80;;;;;;;;;;5083421;28;20048;-86
2023/07/19 21:13:49;;;;;;;2.40;1.00;;;;;;;;;;5080198;28;20298;-86
2023/07/19 21:16:18;;;;;;;1.15;0.60;;;;;;;;;;5081325;28;20048;-87
2023/07/19 21:18:45;;;;;;;2.42;0.68;;;;;;;;;;5079398;28;20051;-87
2023/07/19 21:21:22;;;;;;;1.95;0.93;;;;;;;;;;5080271;28;20060;-87
2023/07/19 21:23:52;;;;;;;2.00;0.80;;;;;;;;;;5082998;28;20179;-86
2023/07/19 21:26:22;;;;;;;1.42;0.60;;;;;;;;;;5087186;28;20101;-86
2023/07/19 21:28:48;;;;;;;3.33;0.80;;;;;;;;;;5085195;28;20041;-86
2023/07/19 21:31:15;;;;;;;1.17;0.82;;;;;;;;;;5085631;28;20230;-86
2023/07/19 21:34:04;;;;;;;4.20;0.90;;;;;;;;;;5079699;28;20125;-86
2023/07/19 21:36:32;;;;;;;5.90;0.98;;;;;;;;;;5078677;28;20044;-86
2023/07/19 21:39:01;;;;;;;2.20;0.95;;;;;;;;;;5079037;28;20052;-87
2023/07/19 21:41:31;;;;;;;1.20;0.75;;;;;;;;;;5080451;28;20036;-86
2023/07/19 21:43:58;;;;;;;2.70;1.20;;;;;;;;;;5076885;28;20367;-86
2023/07/19 21:46:26;;;;;;;3.08;1.10;;;;;;;;;;5079433;28;20052;-87
2023/07/19 21:48:57;;;;;;;1.70;0.93;;;;;;;;;;5079894;28;20102;-87
2023/07/19 21:51:33;;;;;;;1.60;0.98;;;;;;;;;;5077983;28;20061;-87
2023/07/19 21:54:00;;;;;;;4.63;1.05;;;;;;;;;;5079677;28;20102;-87
2023/07/19 21:56:27;;;;;;;1.98;1.08;;;;;;;;;;5090003;28;20036;-85
2023/07/19 21:58:57;;;;;;;3.25;1.17;;;;;;;;;;5083559;28;20245;-85
2023/07/19 22:01:25;;;;;;;1.90;1.30;;;;;;;;;;5079486;28;20086;-86
2023/07/19 22:03:57;;;;;;;6.35;1.17;;;;;;;;;;5078375;28;20226;-87
2023/07/19 22:06:30;;;;;;;2.88;1.35;;;;;;;;;;5080563;28;20044;-87
2023/07/19 22:08:59;;;;;;;5.25;1.30;;;;;;;;;;5081213;28;20045;-85
2023/07/19 22:11:30;;;;;;;2.30;1.30;;;;;;;;;;5080512;28;20259;-85
2023/07/19 22:13:59;;;;;;;8.45;0.90;;;;;;;;;;5079304;28;20265;-86
2023/07/19 22:16:27;;;;;;;1.50;1.38;;;;;;;;;;5080158;28;20406;-86
2023/07/19 22:18:53;;;;;;;2.70;1.50;;;;;;;;;;5079206;28;20236;-87
2023/07/19 22:21:27;;;;;;;1.77;1.40;;;;;;;;;;5084825;28;20058;-86
2023/07/19 22:23:54;;;;;;;2.83;1.40;;;;;;;;;;5079311;28;20044;-86
2023/07/19 22:26:20;;;;;;;3.80;1.17;;;;;;;;;;5082021;28;20048;-86
2023/07/19 22:28:57;;;;;;;2.92;1.50;;;;;;;;;;5082210;28;20280;-86
2023/07/19 22:31:24;;;;;;;4.53;1.50;;;;;;;;;;5081233;28;20060;-87
2023/07/19 22:33:52;;;;;;;1.85;1.40;;;;;;;;;;5082728;28;20394;-87
2023/07/19 22:36:26;;;;;;;3.22;1.52;;;;;;;;;;5082607;28;20314;-86
2023/07/19 22:38:55;;;;;;;2.60;1.58;;;;;;;;;;5083496;28;20229;-87
2023/07/19 22:41:22;;;;;;;3.20;1.67;;;;;;;;;;5082413;28;20147;-87
2023/07/19 22:43:49;;;;;;;1.80;1.50;;;;;;;;;;5082111;28;20059;-86
2023/07/19 22:46:18;;;;;;;7.75;1.80;;;;;;;;;;5080921;28;20052;-87
2023/07/19 22:48:49;;;;;;;5.45;1.98;;;;;;;;;;5079915;28;20064;-86
2023/07/19 22:51:16;;;;;;;3.88;2.00;;;;;;;;;;5081027;28;20063;-86
2023/07/19 22:53:46;;;;;;;2.95;2.35;;;;;;;;;;5082576;28;20474;-87
2023/07/19 22:56:13;;;;;;;6.28;2.45;;;;;;;;;;5081989;28;20048;-86
2023/07/19 22:58:40;;;;;;;4.00;2.97;;;;;;;;;;5080966;28;20052;-86
2023/07/19 23:01:07;;;;;;;3.50;2.15;;;;;;;;;;5082331;28;20059;-86
2023/07/19 23:03:35;;;;;;;3.63;2.35;;;;;;;;;;5080817;28;20044;-87
2023/07/19 23:06:06;;;;;;;3.92;2.28;;;;;;;;;;5078256;28;20607;-86
2023/07/19 23:08:33;;;;;;;7.30;2.67;;;;;;;;;;5087206;28;20419;-87
2023/07/19 23:11:03;;;;;;;5.53;2.75;;;;;;;;;;5090133;28;20049;-87
2023/07/19 23:13:36;;;;;;;8.25;2.60;;;;;;;;;;5092158;28;20068;-86
2023/07/19 23:16:18;;;;;;;4.68;2.63;;;;;;;;;;5088814;28;20194;-87
2023/07/19 23:18:58;;;;;;;6.60;2.50;;;;;;;;;;5079470;28;20050;-86
2023/07/19 23:21:24;;;;;;;2.78;2.25;;;;;;;;;;5077597;28;20071;-86
2023/07/19 23:23:51;;;;;;;2.70;2.03;;;;;;;;;;5078743;28;20110;-86
2023/07/19 23:26:22;;;;;;;3.92;2.17;;;;;;;;;;5078564;28;20044;-85
2023/07/19 23:28:52;;;;;;;3.50;1.90;;;;;;;;;;5079340;28;20112;-87
2023/07/19 23:31:18;;;;;;;2.20;1.50;;;;;;;;;;5079851;28;20078;-86
2023/07/19 23:33:45;;;;;;;2.03;1.70;;;;;;;;;;5083786;28;20044;-86
2023/07/19 23:36:13;;;;;;;2.42;1.30;;;;;;;;;;5091358;28;20049;-87
2023/07/19 23:38:41;;;;;;;2.05;1.58;;;;;;;;;;5092606;28;20098;-86
2023/07/19 23:41:08;;;;;;;1.40;1.30;;;;;;;;;;5092222;28;20123;-87
2023/07/19 23:43:37;;;;;;;4.80;1.58;;;;;;;;;;5088663;28;20336;-87
2023/07/19 23:46:04;;;;;;;1.30;1.20;;;;;;;;;;5086497;28;20044;-86
2023/07/19 23:48:35;;;;;;;1.30;1.20;;;;;;;;;;5085775;28;20048;-86
2023/07/19 23:51:03;;;;;;;3.35;1.38;;;;;;;;;;5085124;28;20048;-86
2023/07/19 23:53:30;;;;;;;4.70;1.73;;;;;;;;;;5086165;28;20055;-87
2023/07/19 23:55:57;;;;;;;1.63;1.45;;;;;;;;;;5087213;28;20041;-87
2023/07/19 23:58:24;;;;;;;1.92;1.38;;;;;;;;;;5088952;28;20048;-87
